METAR Data
IDs: Format: Raw Decoded Include TAF

Data at: 0014 UTC 30 May 2020

METAR for:KCBF (Council Bluffs Muni, IA, US)
Text:KCBF 292355Z AUTO 35008KT 10SM CLR 23/04 A3014 RMK AO2
Temperature: 23.0°C ( 73°F)
Dewpoint: 4.0°C ( 39°F) [RH = 29%]
Pressure (altimeter):30.14 inches Hg (1020.7 mb)
Winds:from the N (350 degrees) at 9 MPH (8 knots; 4.1 m/s)
Visibility:10 or more sm (16+ km)
Ceiling:at least 12,000 feet AGL
Clouds:sky clear below 12,000 feet AGL
QC Flag:automated observation with no human augmentation